Time;durP1;ratioP1;P1;durP2;ratioP2;P2;SDS_P1;SDS_P2;PMS_P1;PMS_P2;Temp;Humidity;BMP_temperature;BMP_pressure;BME280_temperature;BME280_humidity;BME280_pressure;Samples;Min_cycle;Max_cycle;Signal;HPM_P1;HPM_P2
2021/03/08 00:07:40;;;;;;;5.57;5.05;;;1.50;99.90;;;;;;4885353;29;20419;-81
2021/03/08 00:10:06;;;;;;;5.53;4.97;;;1.50;99.90;;;;;;4886656;29;20409;-83
2021/03/08 00:12:32;;;;;;;5.47;4.50;;;1.60;99.90;;;;;;4890232;29;20409;-83
2021/03/08 00:14:59;;;;;;;6.80;4.75;;;1.50;99.90;;;;;;4880505;29;20401;-88
2021/03/08 00:17:24;;;;;;;5.85;5.22;;;1.60;99.90;;;;;;4857597;29;20421;-86
2021/03/08 00:19:51;;;;;;;6.28;5.65;;;1.70;99.90;;;;;;4888398;29;20446;-84
2021/03/08 00:22:17;;;;;;;7.47;5.80;;;1.60;99.90;;;;;;4859706;29;20424;-83
2021/03/08 00:27:49;;;;;;;6.22;5.20;;;1.70;99.90;;;;;;5666803;23;20409;-80
2021/03/08 00:30:15;;;;;;;6.07;5.47;;;1.70;99.90;;;;;;4898419;29;20491;-80
2021/03/08 00:32:41;;;;;;;5.63;5.03;;;1.70;99.90;;;;;;4904356;29;20443;-81
2021/03/08 00:35:08;;;;;;;6.00;5.40;;;1.80;99.90;;;;;;4899460;29;20389;-80
2021/03/08 00:37:38;;;;;;;5.70;5.20;;;1.70;99.90;;;;;;4908079;29;20421;-83
2021/03/08 00:40:27;;;;;;;6.05;5.45;;;1.70;99.90;;;;;;4916826;29;20922;-80
2021/03/08 00:42:55;;;;;;;6.22;5.63;;;1.70;99.90;;;;;;4888944;29;21743;-80
2021/03/08 00:45:22;;;;;;;6.28;5.68;;;1.70;99.90;;;;;;4889721;29;20537;-80
2021/03/08 00:48:10;;;;;;;6.07;5.47;;;1.70;99.90;;;;;;4898347;29;20400;-80
2021/03/08 00:50:45;;;;;;;6.97;5.57;;;1.70;99.90;;;;;;4883783;29;20481;-80
2021/03/08 00:53:19;;;;;;;6.60;5.93;;;1.70;99.90;;;;;;4902977;29;20420;-80
2021/03/08 00:55:49;;;;;;;5.75;5.25;;;1.70;99.90;;;;;;4914744;29;20403;-81
2021/03/08 00:58:16;;;;;;;6.80;5.80;;;1.80;99.90;;;;;;4886990;29;20570;-79
2021/03/08 01:00:42;;;;;;;6.43;5.80;;;1.70;99.90;;;;;;4919454;29;20960;-81
2021/03/08 01:03:09;;;;;;;7.25;5.82;;;1.70;99.90;;;;;;4924257;29;20403;-80
2021/03/08 01:05:39;;;;;;;6.35;5.55;;;1.80;99.90;;;;;;4912439;29;20409;-80
2021/03/08 01:08:20;;;;;;;6.40;5.80;;;1.80;99.90;;;;;;4906051;29;20443;-79
2021/03/08 01:10:47;;;;;;;6.50;5.80;;;1.80;99.90;;;;;;4902491;29;20449;-79
2021/03/08 01:13:20;;;;;;;7.07;5.80;;;1.80;99.90;;;;;;4889832;29;20420;-81
2021/03/08 01:15:51;;;;;;;7.15;5.78;;;1.80;99.90;;;;;;5794216;23;20610;-78
2021/03/08 01:18:17;;;;;;;6.15;5.53;;;1.90;99.90;;;;;;4900847;29;20451;-80
2021/03/08 01:20:46;;;;;;;5.70;5.00;;;1.80;99.90;;;;;;4895573;29;20402;-80
2021/03/08 01:23:13;;;;;;;5.80;5.20;;;1.80;99.90;;;;;;4887930;29;20419;-78
2021/03/08 01:28:47;;;;;;;6.10;5.47;;;2.00;99.90;;;;;;5256294;23;20826;-79
2021/03/08 01:31:13;;;;;;;5.65;5.15;;;2.10;99.90;;;;;;4889883;29;20388;-79
2021/03/08 01:37:23;;;;;;;5.72;5.18;;;2.20;99.90;;;;;;4917054;29;20425;-80
2021/03/08 01:39:49;;;;;;;6.30;5.70;;;2.20;99.90;;;;;;4897320;29;20412;-80
2021/03/08 01:42:18;;;;;;;5.53;5.00;;;2.20;99.90;;;;;;4900823;29;22175;-80
2021/03/08 01:44:44;;;;;;;6.05;5.45;;;2.30;99.90;;;;;;4887295;29;20504;-79
2021/03/08 01:47:10;;;;;;;5.95;5.40;;;2.20;99.90;;;;;;4880735;29;20466;-79
2021/03/08 01:49:36;;;;;;;7.13;5.43;;;2.20;99.90;;;;;;4903480;29;20409;-79
2021/03/08 01:52:05;;;;;;;6.50;5.63;;;2.10;99.90;;;;;;4921747;29;20834;-79
2021/03/08 01:54:31;;;;;;;6.35;5.63;;;2.10;99.90;;;;;;4888766;29;20412;-79
2021/03/08 01:56:57;;;;;;;6.57;5.95;;;2.10;99.90;;;;;;4888867;29;20506;-78
2021/03/08 01:59:23;;;;;;;6.67;6.07;;;2.10;99.90;;;;;;4883666;29;20444;-78
2021/03/08 02:01:49;;;;;;;7.63;6.13;;;2.10;99.90;;;;;;4884719;29;20473;-78
2021/03/08 02:04:17;;;;;;;6.70;5.90;;;2.10;99.90;;;;;;4876032;29;20451;-79
2021/03/08 02:06:46;;;;;;;6.15;5.55;;;2.00;99.90;;;;;;4885343;29;20413;-79
2021/03/08 02:09:12;;;;;;;7.40;6.32;;;2.00;99.90;;;;;;4875281;29;20550;-79
2021/03/08 02:11:38;;;;;;;6.03;5.43;;;2.00;99.90;;;;;;4882891;29;20554;-79
2021/03/08 02:14:32;;;;;;;7.27;5.97;;;2.00;99.90;;;;;;4875654;29;20530;-80
2021/03/08 02:17:12;;;;;;;6.07;5.57;;;1.90;99.90;;;;;;4901313;29;20397;-79
2021/03/08 02:20:04;;;;;;;6.13;5.53;;;1.90;99.90;;;;;;4870089;29;20397;-79
2021/03/08 02:22:38;;;;;;;5.55;5.05;;;2.00;99.90;;;;;;4903604;29;20429;-79
2021/03/08 02:25:14;;;;;;;6.30;5.70;;;2.00;99.90;;;;;;4899838;29;20433;-79
2021/03/08 02:27:53;;;;;;;6.35;5.75;;;2.00;99.90;;;;;;4885154;29;20408;-79
2021/03/08 02:30:37;;;;;;;7.55;5.90;;;2.00;99.90;;;;;;4917822;29;20471;-79
2021/03/08 02:33:05;;;;;;;6.03;5.43;;;2.00;99.90;;;;;;4905566;29;20408;-79
2021/03/08 02:35:31;;;;;;;6.60;5.93;;;2.00;99.90;;;;;;4871870;29;20447;-79
2021/03/08 02:38:06;;;;;;;6.80;6.00;;;2.00;99.90;;;;;;4901735;29;20420;-79
2021/03/08 02:41:14;;;;;;;5.95;5.35;;;2.00;99.90;;;;;;4900130;29;20394;-79
2021/03/08 02:43:42;;;;;;;6.30;5.57;;;1.90;99.90;;;;;;4888839;29;20408;-79
2021/03/08 02:46:19;;;;;;;6.07;5.47;;;1.90;99.90;;;;;;4863745;29;20428;-80
2021/03/08 02:48:48;;;;;;;6.67;6.00;;;1.90;99.90;;;;;;4875861;29;20472;-79
2021/03/08 02:51:14;;;;;;;7.35;5.88;;;1.90;99.90;;;;;;4843833;29;20477;-79
2021/03/08 02:53:42;;;;;;;5.43;4.90;;;2.00;99.90;;;;;;4870034;29;20392;-79
2021/03/08 02:56:16;;;;;;;5.78;5.22;;;2.00;99.90;;;;;;4849328;29;20424;-79
2021/03/08 02:58:44;;;;;;;7.07;6.20;;;1.90;99.90;;;;;;4871554;29;20800;-79
2021/03/08 03:01:09;;;;;;;5.47;4.97;;;1.90;99.90;;;;;;4868003;29;20396;-79
2021/03/08 03:09:58;;;;;;;5.37;4.87;;;1.90;99.90;;;;;;4903198;29;20413;-80
2021/03/08 03:12:26;;;;;;;6.50;5.80;;;2.00;99.90;;;;;;4879452;29;20413;-80
2021/03/08 03:23:39;;;;;;;7.05;5.88;;;1.70;99.90;;;;;;4822422;29;20452;-81
2021/03/08 03:26:10;;;;;;;6.15;5.55;;;1.80;99.90;;;;;;4878443;29;20405;-79
2021/03/08 03:28:36;;;;;;;6.80;6.20;;;1.80;99.90;;;;;;4830747;29;20399;-80
2021/03/08 03:31:11;;;;;;;7.53;6.60;;;1.70;99.90;;;;;;4870412;29;20436;-82
2021/03/08 03:33:45;;;;;;;7.63;6.13;;;1.60;99.90;;;;;;4857408;29;20401;-81
2021/03/08 03:36:13;;;;;;;5.18;4.72;;;1.60;99.90;;;;;;4878305;29;20405;-80
2021/03/08 03:42:38;;;;;;;7.15;6.35;;;1.70;99.90;;;;;;4885912;29;20505;-80
2021/03/08 03:45:06;;;;;;;6.57;6.00;;;1.40;99.90;;;;;;4835676;29;20416;-79
2021/03/08 03:47:33;;;;;;;6.95;6.25;;;1.40;99.90;;;;;;4870667;29;22310;-79
2021/03/08 03:49:58;;;;;;;7.10;5.72;;;1.40;99.90;;;;;;4869511;29;20399;-79
2021/03/08 03:52:24;;;;;;;7.40;6.60;;;1.40;99.90;;;;;;4874501;29;20408;-81
2021/03/08 03:55:11;;;;;;;7.03;6.32;;;1.40;99.90;;;;;;4879257;29;20449;-81
2021/03/08 03:57:51;;;;;;;6.72;6.07;;;1.40;99.90;;;;;;4884685;29;20423;-80
2021/03/08 04:00:22;;;;;;;6.32;5.70;;;1.40;99.90;;;;;;4864637;29;20404;-80
2021/03/08 04:02:52;;;;;;;6.65;5.90;;;1.40;99.90;;;;;;4872366;29;20442;-79
2021/03/08 04:05:20;;;;;;;6.40;5.05;;;1.40;99.90;;;;;;4862560;29;20734;-79
2021/03/08 04:07:46;;;;;;;8.23;5.93;;;1.30;99.90;;;;;;4838031;29;20399;-79
2021/03/08 04:10:15;;;;;;;6.13;5.30;;;1.20;99.90;;;;;;4871317;29;20427;-79
2021/03/08 04:12:43;;;;;;;6.25;5.65;;;1.20;99.90;;;;;;4870818;29;20444;-79
2021/03/08 04:15:10;;;;;;;7.45;5.88;;;1.20;99.90;;;;;;4876243;29;20890;-81
2021/03/08 04:17:37;;;;;;;6.63;5.80;;;1.10;99.90;;;;;;4867411;29;20423;-80
2021/03/08 04:20:05;;;;;;;5.57;5.00;;;1.10;99.90;;;;;;4859068;29;20409;-80
2021/03/08 04:22:32;;;;;;;6.07;5.47;;;1.00;99.90;;;;;;4847147;29;20431;-79
2021/03/08 04:27:41;;;;;;;6.35;5.70;;;0.90;99.90;;;;;;4872690;29;20428;-81
2021/03/08 04:30:08;;;;;;;5.93;5.43;;;0.80;99.90;;;;;;4858270;29;20475;-79
2021/03/08 04:32:34;;;;;;;6.28;5.45;;;0.80;99.90;;;;;;4835834;29;20408;-81
2021/03/08 04:35:07;;;;;;;5.82;5.22;;;0.60;99.90;;;;;;4850827;29;20478;-81
2021/03/08 04:37:33;;;;;;;8.88;5.68;;;0.60;99.90;;;;;;4861430;29;20434;-80
2021/03/08 04:39:59;;;;;;;6.18;4.97;;;0.60;99.90;;;;;;4834987;29;20445;-83
2021/03/08 04:42:54;;;;;;;5.43;4.90;;;0.60;99.90;;;;;;4856982;29;20405;-80
2021/03/08 04:46:07;;;;;;;5.50;5.00;;;0.40;99.90;;;;;;4845801;29;20405;-79
2021/03/08 04:48:34;;;;;;;5.47;5.00;;;0.20;99.90;;;;;;4862016;29;20416;-79
2021/03/08 04:55:33;;;;;;;5.10;4.60;;;0.00;99.90;;;;;;4876740;29;20425;-81
2021/03/08 04:58:54;;;;;;;7.18;5.55;;;0.00;99.90;;;;;;4890605;29;20940;-78
2021/03/08 05:05:43;;;;;;;4.90;4.40;;;-0.10;99.90;;;;;;4881514;29;20408;-81
2021/03/08 05:09:00;;;;;;;4.70;4.30;;;-0.30;99.90;;;;;;4867148;29;20420;-80
2021/03/08 05:13:31;;;;;;;5.78;5.15;;;-0.10;99.90;;;;;;4744226;30;20439;-79
2021/03/08 05:17:32;;;;;;;5.18;4.68;;;-0.20;99.90;;;;;;4786457;29;20436;-82
2021/03/08 05:21:15;;;;;;;6.07;5.03;;;-0.30;99.90;;;;;;4787928;29;20431;-79
2021/03/08 05:23:44;;;;;;;6.03;5.28;;;-0.40;99.90;;;;;;4785050;29;20449;-79
2021/03/08 05:26:10;;;;;;;6.88;5.70;;;-0.50;99.90;;;;;;4831995;29;20492;-79
2021/03/08 05:28:36;;;;;;;6.18;5.30;;;-0.50;99.90;;;;;;4860824;29;20389;-79
2021/03/08 05:31:02;;;;;;;5.60;4.93;;;-0.50;99.90;;;;;;4859530;29;20393;-79
2021/03/08 05:33:29;;;;;;;7.30;6.00;;;-0.60;99.90;;;;;;4860494;29;20751;-80
2021/03/08 05:42:28;;;;;;;5.80;5.20;;;-0.80;99.90;;;;;;4438382;23;20466;-79
2021/03/08 05:45:07;;;;;;;6.18;5.40;;;-0.70;99.90;;;;;;4884770;29;20399;-79
2021/03/08 05:47:32;;;;;;;6.80;5.65;;;-0.80;99.90;;;;;;4829089;29;20417;-77
2021/03/08 05:50:21;;;;;;;8.33;5.80;;;-0.80;99.90;;;;;;4890145;29;20391;-77
2021/03/08 05:53:45;;;;;;;6.60;5.70;;;-1.00;99.90;;;;;;4893387;29;20431;-79
2021/03/08 05:56:31;;;;;;;6.82;6.05;;;-0.90;99.90;;;;;;4913492;29;20453;-79
2021/03/08 05:59:07;;;;;;;6.75;5.70;;;-1.00;99.90;;;;;;4882099;29;20417;-79
2021/03/08 06:01:54;;;;;;;6.13;5.45;;;-0.90;99.90;;;;;;4897006;29;21464;-81
2021/03/08 06:04:39;;;;;;;6.70;5.47;;;-1.00;99.90;;;;;;4908722;29;20413;-80
2021/03/08 06:07:43;;;;;;;5.53;4.93;;;-1.00;99.90;;;;;;4911741;29;20922;-80
2021/03/08 06:10:26;;;;;;;5.82;5.18;;;-1.00;99.90;;;;;;4898788;29;20503;-81
2021/03/08 07:25:10;;;;;;;4.32;3.22;;;-0.10;99.90;;;;;;4521045;23;21082;-81
2021/03/08 07:28:29;;;;;;;3.80;3.37;;;-0.10;99.90;;;;;;4844098;29;20566;-81
2021/03/08 07:38:52;;;;;;;4.07;3.10;;;0.10;99.90;;;;;;4928082;23;20466;-82
2021/03/08 07:41:19;;;;;;;3.40;3.10;;;0.20;99.90;;;;;;4820886;29;20404;-83
2021/03/08 07:43:49;;;;;;;3.47;3.17;;;0.20;99.90;;;;;;4808771;29;20473;-82
2021/03/08 07:46:32;;;;;;;3.17;2.88;;;0.20;99.90;;;;;;4847174;29;20983;-83
2021/03/08 07:48:58;;;;;;;4.10;3.63;;;0.30;99.90;;;;;;4825225;29;20412;-82
2021/03/08 07:51:35;;;;;;;6.28;3.30;;;0.40;99.90;;;;;;4797033;29;20412;-82
2021/03/08 08:05:24;;;;;;;2.70;2.50;;;0.60;99.90;;;;;;5749243;23;20507;-79
2021/03/08 08:36:16;;;;;;;2.43;2.23;;;1.30;99.90;;;;;;5569367;23;20415;-80
2021/03/08 08:39:07;;;;;;;3.42;2.67;;;1.40;99.90;;;;;;4806636;29;20427;-79
2021/03/08 09:28:37;;;;;;;1.23;1.17;;;2.50;99.90;;;;;;5801638;23;22066;-81
2021/03/08 09:31:02;;;;;;;0.95;0.95;;;2.60;99.90;;;;;;4810511;29;20422;-81
2021/03/08 09:33:28;;;;;;;1.00;1.00;;;2.70;99.90;;;;;;4782262;29;20426;-82
2021/03/08 09:35:58;;;;;;;2.15;1.00;;;2.80;99.90;;;;;;4811095;29;20454;-82
2021/03/08 09:38:25;;;;;;;0.90;0.90;;;2.90;99.90;;;;;;4812442;29;20418;-81
2021/03/08 09:41:47;;;;;;;1.15;1.10;;;3.10;99.90;;;;;;4807039;29;20419;-81
2021/03/08 09:45:12;;;;;;;3.50;2.03;;;3.00;99.90;;;;;;4761011;29;20424;-82
2021/03/08 10:07:04;;;;;;;1.35;1.00;;;3.60;99.90;;;;;;5019122;23;20456;-79
2021/03/08 10:30:58;;;;;;;0.95;0.90;;;4.50;99.90;;;;;;5032505;24;20537;-79
2021/03/08 10:33:24;;;;;;;2.38;1.00;;;4.60;99.90;;;;;;4809061;29;20429;-78
2021/03/08 10:35:54;;;;;;;1.02;1.00;;;4.70;99.90;;;;;;4800921;29;20438;-79
2021/03/08 10:38:26;;;;;;;1.00;1.00;;;4.70;99.90;;;;;;4786637;29;20409;-78
2021/03/08 10:40:54;;;;;;;1.42;1.00;;;4.70;99.90;;;;;;4786658;29;20422;-78
2021/03/08 10:43:21;;;;;;;0.90;0.90;;;4.90;99.90;;;;;;4779624;29;20414;-79
2021/03/08 10:45:48;;;;;;;0.80;0.80;;;5.20;99.90;;;;;;4795359;29;20420;-78
2021/03/08 10:48:14;;;;;;;0.90;0.90;;;5.20;99.90;;;;;;4826762;29;20426;-79
2021/03/08 10:50:50;;;;;;;1.30;1.20;;;5.20;99.90;;;;;;4826644;29;20412;-78
2021/03/08 10:53:17;;;;;;;1.00;0.90;;;5.40;99.90;;;;;;4812686;29;20424;-79
2021/03/08 10:55:43;;;;;;;2.20;0.80;;;5.60;99.90;;;;;;4797775;29;20458;-79
2021/03/08 10:58:09;;;;;;;1.10;1.00;;;5.60;99.90;;;;;;4805237;29;20797;-78
2021/03/08 11:00:35;;;;;;;1.40;0.80;;;5.90;99.90;;;;;;4839619;29;20939;-79
2021/03/08 11:03:01;;;;;;;0.70;0.70;;;6.30;99.90;;;;;;4838261;29;20484;-78
2021/03/08 11:05:30;;;;;;;0.80;0.80;;;6.70;99.90;;;;;;4799175;29;20935;-79
2021/03/08 11:07:56;;;;;;;0.98;0.90;;;6.80;99.90;;;;;;4798616;29;20408;-79
2021/03/08 11:10:37;;;;;;;0.77;0.77;;;7.10;99.90;;;;;;4791844;29;20406;-79
2021/03/08 11:13:07;;;;;;;1.50;1.13;;;7.40;97.40;;;;;;4805894;29;20413;-79
2021/03/08 11:15:34;;;;;;;0.80;0.80;;;7.50;92.20;;;;;;4801360;29;20409;-79
2021/03/08 11:18:00;;;;;;;0.80;0.80;;;7.50;96.50;;;;;;4789192;29;20433;-79
2021/03/08 11:20:28;;;;;;;0.90;0.90;;;7.40;89.10;;;;;;4785073;29;20975;-79
2021/03/08 11:22:57;;;;;;;1.50;0.80;;;7.50;87.30;;;;;;4800227;29;20454;-78
2021/03/08 11:25:30;;;;;;;2.22;0.90;;;8.10;91.80;;;;;;4794724;29;20488;-79
2021/03/08 11:27:56;;;;;;;0.70;0.70;;;8.30;91.40;;;;;;4812248;29;20410;-78
2021/03/08 11:30:23;;;;;;;0.90;0.90;;;8.70;90.20;;;;;;4797156;29;20411;-79
2021/03/08 11:32:54;;;;;;;12.20;8.23;;;8.80;85.80;;;;;;4809181;29;20559;-79
2021/03/08 11:35:22;;;;;;;1.77;0.97;;;8.70;90.00;;;;;;4832709;29;20424;-79
2021/03/08 11:37:50;;;;;;;1.30;1.20;;;8.70;88.70;;;;;;4808700;29;20426;-78
2021/03/08 11:40:16;;;;;;;0.75;0.70;;;9.30;89.60;;;;;;4820160;29;20416;-78
2021/03/08 11:42:42;;;;;;;4.13;3.72;;;9.50;78.80;;;;;;4799241;29;20451;-79
2021/03/08 11:45:09;;;;;;;10.00;8.77;;;9.30;80.90;;;;;;4808689;29;20414;-79
2021/03/08 11:47:35;;;;;;;27.25;18.52;;;9.60;78.70;;;;;;4811984;29;20410;-82
2021/03/08 11:50:01;;;;;;;118.40;65.63;;;9.90;74.20;;;;;;4782031;29;20417;-79
2021/03/08 11:52:26;;;;;;;53.40;27.50;;;9.90;64.20;;;;;;4808995;29;20863;-81
2021/03/08 11:54:52;;;;;;;81.82;45.13;;;10.10;64.50;;;;;;4793205;29;20468;-83
2021/03/08 11:57:18;;;;;;;268.87;156.30;;;10.40;66.20;;;;;;4822764;29;20427;-78
2021/03/08 11:59:44;;;;;;;136.95;75.10;;;10.50;60.50;;;;;;4799236;29;20410;-86
2021/03/08 12:02:10;;;;;;;4.93;3.92;;;10.90;63.50;;;;;;4791447;29;20428;-79
2021/03/08 12:04:36;;;;;;;20.48;13.63;;;11.40;64.70;;;;;;4824670;29;20402;-85
2021/03/08 12:07:02;;;;;;;3.03;2.73;;;11.60;59.10;;;;;;4796477;29;20645;-82
2021/03/08 12:12:18;;;;;;;21.92;15.90;;;11.70;59.00;;;;;;4912898;23;20484;-85
2021/03/08 14:44:49;;;;;;;1.00;0.95;;;9.70;39.60;;;;;;5672814;23;20463;-81
2021/03/08 14:47:26;;;;;;;2.90;1.00;;;9.90;42.20;;;;;;4804977;29;20515;-82
2021/03/08 14:50:50;;;;;;;1.20;1.10;;;9.80;43.80;;;;;;4830935;29;20423;-80
2021/03/08 14:54:33;;;;;;;2.00;1.20;;;9.10;39.90;;;;;;4772036;29;20511;-81
2021/03/08 14:58:36;;;;;;;2.40;2.07;;;9.00;42.60;;;;;;4818212;29;20499;-82
2021/03/08 15:14:21;;;;;;;7.55;1.98;;;9.30;46.80;;;;;;5227816;24;20491;-79
2021/03/08 15:16:48;;;;;;;1.90;1.40;;;9.90;46.60;;;;;;4820476;29;20436;-82
2021/03/08 15:48:52;;;;;;;1.38;1.27;;;8.80;45.10;;;;;;5270570;24;20461;-90
2021/03/08 15:51:36;;;;;;;0.70;0.70;;;8.80;44.50;;;;;;4838740;29;20414;-81
2021/03/08 15:54:01;;;;;;;0.63;0.63;;;9.10;45.00;;;;;;4775681;29;20397;-80
2021/03/08 15:56:27;;;;;;;1.60;1.00;;;9.20;46.40;;;;;;4799396;29;20413;-81
2021/03/08 15:58:53;;;;;;;1.55;1.17;;;9.70;45.70;;;;;;4788641;29;20434;-80
2021/03/08 16:01:18;;;;;;;0.80;0.80;;;9.90;45.60;;;;;;4771964;29;20415;-80
2021/03/08 16:03:44;;;;;;;0.90;0.90;;;10.00;44.90;;;;;;4789908;29;20422;-85
2021/03/08 16:06:10;;;;;;;1.47;1.20;;;9.50;42.80;;;;;;4770262;29;20423;-81
2021/03/08 16:08:35;;;;;;;2.33;1.60;;;9.50;46.70;;;;;;4800246;29;20452;-83
2021/03/08 16:11:01;;;;;;;1.92;1.65;;;9.40;46.60;;;;;;4806481;29;20429;-81
2021/03/08 16:13:27;;;;;;;1.50;1.03;;;9.40;45.60;;;;;;4792894;29;20433;-81
2021/03/08 16:15:52;;;;;;;1.15;1.05;;;9.20;44.90;;;;;;4778963;29;20413;-79
2021/03/08 16:18:18;;;;;;;1.10;1.00;;;9.40;49.10;;;;;;4788128;29;20439;-82
2021/03/08 16:20:44;;;;;;;0.98;0.98;;;9.60;50.00;;;;;;4777819;29;20464;-81
2021/03/08 16:23:09;;;;;;;1.17;1.00;;;9.50;46.00;;;;;;4804619;29;20836;-81
2021/03/08 16:25:35;;;;;;;1.15;1.05;;;9.30;46.70;;;;;;4792526;29;20425;-81
2021/03/08 16:28:01;;;;;;;0.80;0.80;;;9.30;48.20;;;;;;4783368;29;20404;-82
2021/03/08 16:30:27;;;;;;;0.70;0.70;;;9.10;47.40;;;;;;4785406;29;21872;-81
2021/03/08 16:32:52;;;;;;;1.00;1.00;;;8.70;47.50;;;;;;4777127;29;20446;-83
2021/03/08 16:35:18;;;;;;;1.20;1.10;;;8.40;47.90;;;;;;4775988;29;20950;-80
2021/03/08 16:37:43;;;;;;;3.25;1.40;;;8.10;49.80;;;;;;4780076;29;21052;-81
2021/03/08 16:40:10;;;;;;;1.20;1.10;;;8.00;50.40;;;;;;4800953;29;20974;-79
2021/03/08 16:42:36;;;;;;;0.90;0.90;;;7.70;49.70;;;;;;4768703;29;20510;-81
2021/03/08 16:45:03;;;;;;;1.25;1.10;;;7.40;51.20;;;;;;4770497;29;20414;-80
2021/03/08 16:47:28;;;;;;;2.70;1.00;;;7.20;51.60;;;;;;4764269;29;20497;-80
2021/03/08 16:49:54;;;;;;;0.90;0.90;;;7.00;50.80;;;;;;4770115;29;20840;-81
2021/03/08 16:58:29;;;;;;;1.25;1.15;;;6.40;53.40;;;;;;4817740;29;20425;-79
2021/03/08 17:00:55;;;;;;;2.00;1.33;;;6.20;54.00;;;;;;4761001;29;20840;-78
2021/03/08 17:03:21;;;;;;;1.48;1.38;;;6.00;55.20;;;;;;4788402;29;20777;-79
2021/03/08 17:05:47;;;;;;;1.52;1.42;;;5.80;55.90;;;;;;4785250;29;20434;-80
2021/03/08 17:08:13;;;;;;;2.08;1.58;;;5.70;56.30;;;;;;4783908;29;20418;-79
2021/03/08 17:10:39;;;;;;;1.77;1.50;;;5.90;56.80;;;;;;4765328;29;20434;-78
2021/03/08 17:13:05;;;;;;;1.70;1.50;;;5.40;56.90;;;;;;4767389;29;20408;-80
2021/03/08 17:15:31;;;;;;;1.33;1.30;;;5.40;57.20;;;;;;4767506;29;20427;-81
2021/03/08 17:17:57;;;;;;;2.03;1.77;;;5.40;58.10;;;;;;4782622;29;20795;-80
2021/03/08 17:20:23;;;;;;;1.73;1.60;;;5.10;59.40;;;;;;4763380;29;20517;-80
2021/03/08 17:22:49;;;;;;;1.70;1.60;;;5.00;59.60;;;;;;4772032;29;20415;-80
2021/03/08 17:25:15;;;;;;;2.80;1.80;;;4.80;60.50;;;;;;4748618;30;20425;-80
2021/03/08 17:27:42;;;;;;;1.80;1.60;;;4.70;62.70;;;;;;4728474;29;20431;-79
2021/03/08 17:30:12;;;;;;;2.42;2.22;;;4.50;63.40;;;;;;4781479;29;20902;-80
2021/03/08 17:32:41;;;;;;;3.50;2.40;;;4.30;63.80;;;;;;4802813;29;21055;-80
2021/03/08 17:35:07;;;;;;;6.65;3.90;;;4.40;64.70;;;;;;4767407;29;20422;-79
2021/03/08 17:37:33;;;;;;;7.60;6.22;;;4.00;64.70;;;;;;4794607;29;20438;-79
2021/03/08 17:39:59;;;;;;;8.27;6.07;;;3.90;66.60;;;;;;4776437;29;20498;-80
2021/03/08 17:42:26;;;;;;;8.65;5.43;;;3.70;68.90;;;;;;4801577;29;20505;-80
2021/03/08 17:44:52;;;;;;;8.20;4.97;;;3.70;71.80;;;;;;4787874;29;20430;-79
2021/03/08 17:47:19;;;;;;;9.05;6.22;;;3.50;73.80;;;;;;4756291;29;20417;-79
2021/03/08 17:49:45;;;;;;;9.35;6.90;;;3.40;74.90;;;;;;4787849;29;20844;-78
2021/03/08 17:52:11;;;;;;;8.15;5.47;;;3.20;75.80;;;;;;4802826;29;20439;-77
2021/03/08 17:54:37;;;;;;;10.25;5.20;;;3.30;77.60;;;;;;4766926;29;20429;-79
2021/03/08 17:57:04;;;;;;;6.85;3.83;;;3.10;78.90;;;;;;4747158;29;20470;-79
2021/03/08 17:59:32;;;;;;;6.70;4.32;;;2.90;77.60;;;;;;4757680;29;20415;-78
2021/03/08 18:01:59;;;;;;;8.60;4.90;;;2.80;82.80;;;;;;4763601;29;20411;-79
2021/03/08 18:04:25;;;;;;;5.78;4.10;;;2.80;84.80;;;;;;4737201;29;20437;-79
2021/03/08 18:06:51;;;;;;;6.00;3.70;;;2.50;84.40;;;;;;4786501;29;20405;-78
2021/03/08 18:09:18;;;;;;;3.78;3.42;;;2.50;86.80;;;;;;4802779;29;20472;-78
2021/03/08 18:11:44;;;;;;;7.35;3.70;;;2.30;88.70;;;;;;4759739;29;20454;-79
2021/03/08 18:14:10;;;;;;;5.10;3.67;;;2.20;91.40;;;;;;4771898;29;20547;-78
2021/03/08 18:16:37;;;;;;;6.95;4.35;;;2.10;93.30;;;;;;4783750;29;20421;-79
2021/03/08 18:19:03;;;;;;;5.65;3.50;;;2.10;93.00;;;;;;4789076;29;20838;-77
2021/03/08 18:21:29;;;;;;;5.43;3.40;;;1.70;95.00;;;;;;4774284;29;20420;-79
2021/03/08 18:23:55;;;;;;;4.88;3.53;;;1.80;97.20;;;;;;4761902;29;20457;-79
2021/03/08 18:26:22;;;;;;;4.90;3.63;;;1.70;97.60;;;;;;4789500;29;20418;-79
2021/03/08 18:28:51;;;;;;;6.00;3.83;;;1.50;97.30;;;;;;4753918;29;20446;-79
2021/03/08 18:31:17;;;;;;;4.43;3.27;;;1.40;97.40;;;;;;4785389;29;20423;-79
2021/03/08 18:33:44;;;;;;;5.78;3.65;;;1.40;98.30;;;;;;4757603;29;20465;-78
2021/03/08 18:36:10;;;;;;;3.90;3.50;;;1.30;99.90;;;;;;4777354;29;20490;-79
2021/03/08 18:38:36;;;;;;;3.72;3.35;;;1.40;99.90;;;;;;4789977;29;20465;-78
2021/03/08 18:41:02;;;;;;;4.45;3.20;;;1.30;99.90;;;;;;4764905;29;20473;-78
2021/03/08 18:43:28;;;;;;;4.27;3.40;;;1.20;99.90;;;;;;4781038;29;20427;-78
2021/03/08 18:45:54;;;;;;;5.23;3.93;;;1.10;99.90;;;;;;4749313;29;20488;-78
2021/03/08 18:48:19;;;;;;;5.03;3.47;;;1.00;99.90;;;;;;4778633;29;20816;-78
2021/03/08 18:50:45;;;;;;;4.38;3.78;;;1.00;99.90;;;;;;4766457;29;20903;-80
2021/03/08 18:53:11;;;;;;;5.18;3.58;;;0.90;99.90;;;;;;4765214;29;20924;-78
2021/03/08 18:55:40;;;;;;;5.50;3.90;;;0.80;99.90;;;;;;4794736;29;20466;-79
2021/03/08 18:58:06;;;;;;;6.60;4.30;;;0.70;99.90;;;;;;4769424;29;20435;-78
2021/03/08 19:00:32;;;;;;;4.90;3.72;;;0.70;99.90;;;;;;4805163;29;20427;-79
2021/03/08 19:02:58;;;;;;;4.80;3.67;;;0.60;99.90;;;;;;4758686;29;20516;-79
2021/03/08 19:05:24;;;;;;;6.57;4.05;;;0.60;99.90;;;;;;4751870;29;20466;-79
2021/03/08 19:07:49;;;;;;;4.32;3.70;;;0.50;99.90;;;;;;4770038;29;20458;-79
2021/03/08 19:10:16;;;;;;;5.40;3.85;;;0.30;99.90;;;;;;4756321;29;20421;-79
2021/03/08 19:12:42;;;;;;;6.43;4.28;;;0.10;99.90;;;;;;4773816;29;20447;-79
2021/03/08 19:15:08;;;;;;;5.57;4.10;;;0.00;99.90;;;;;;4757584;29;20434;-77
2021/03/08 19:17:34;;;;;;;6.13;3.93;;;-0.20;99.90;;;;;;4777255;29;20457;-78
2021/03/08 19:20:00;;;;;;;4.90;4.10;;;-0.20;99.90;;;;;;4760490;29;20583;-78
2021/03/08 19:22:26;;;;;;;5.93;4.30;;;-0.20;99.90;;;;;;4771914;29;20475;-79
2021/03/08 19:24:51;;;;;;;4.57;3.67;;;-0.40;99.90;;;;;;4772615;29;20431;-79
2021/03/08 19:27:17;;;;;;;4.80;3.72;;;-0.50;99.90;;;;;;4785980;29;20429;-80
2021/03/08 19:29:43;;;;;;;4.32;3.80;;;-0.50;99.90;;;;;;4764329;29;20489;-79
2021/03/08 19:32:09;;;;;;;6.28;4.10;;;-0.50;99.90;;;;;;4771604;29;20427;-78
2021/03/08 19:34:35;;;;;;;4.85;4.07;;;-0.50;99.90;;;;;;4787637;29;20432;-79
2021/03/08 19:37:01;;;;;;;7.47;4.82;;;-0.80;99.90;;;;;;4774669;29;20476;-78
2021/03/08 19:39:26;;;;;;;5.97;4.63;;;-0.70;99.90;;;;;;4768287;29;20565;-79
2021/03/08 19:41:52;;;;;;;8.93;4.90;;;-0.50;99.90;;;;;;4787247;29;20445;-79
2021/03/08 19:44:18;;;;;;;7.27;5.30;;;-0.70;99.90;;;;;;4793708;29;20437;-79
2021/03/08 19:46:44;;;;;;;7.13;5.32;;;-0.80;99.90;;;;;;4774747;29;20417;-77
2021/03/08 19:49:10;;;;;;;7.05;5.63;;;-0.80;99.90;;;;;;4775693;29;20444;-79
2021/03/08 19:51:36;;;;;;;7.85;5.95;;;-0.80;99.90;;;;;;4763748;29;20928;-79
2021/03/08 19:54:03;;;;;;;6.15;5.38;;;-0.70;99.90;;;;;;4759109;29;20414;-79
2021/03/08 19:56:29;;;;;;;6.72;5.15;;;-0.90;99.90;;;;;;4771428;29;20420;-79
2021/03/08 19:58:57;;;;;;;6.70;5.45;;;-0.80;99.90;;;;;;4782616;29;20439;-79
2021/03/08 20:01:23;;;;;;;7.95;6.32;;;-1.00;99.90;;;;;;4751512;29;20491;-79
2021/03/08 20:03:49;;;;;;;9.27;5.90;;;-1.00;99.90;;;;;;4762370;29;20494;-79
2021/03/08 20:06:15;;;;;;;8.68;6.03;;;-0.80;99.90;;;;;;4784094;29;20427;-79
2021/03/08 20:08:42;;;;;;;7.45;5.10;;;-1.00;99.90;;;;;;4754090;29;20423;-79
2021/03/08 20:11:09;;;;;;;7.55;5.00;;;-1.30;99.90;;;;;;4785461;29;20491;-79
2021/03/08 20:13:43;;;;;;;6.13;5.25;;;-1.40;99.90;;;;;;4801008;29;20508;-79
2021/03/08 20:16:13;;;;;;;7.47;5.03;;;-1.20;99.90;;;;;;4776220;29;20480;-79
2021/03/08 20:18:39;;;;;;;6.22;4.65;;;-1.40;99.90;;;;;;4761316;29;20433;-80
2021/03/08 20:21:06;;;;;;;7.83;4.97;;;-1.40;99.90;;;;;;4754304;29;20442;-80
2021/03/08 20:23:32;;;;;;;6.30;5.00;;;-1.50;99.90;;;;;;4746192;29;20434;-80
2021/03/08 20:26:02;;;;;;;5.45;4.32;;;-1.50;99.90;;;;;;4787558;29;20426;-79
2021/03/08 20:28:28;;;;;;;7.40;4.53;;;-1.50;99.90;;;;;;4795125;29;20421;-81
2021/03/08 20:30:55;;;;;;;5.28;4.22;;;-1.60;99.90;;;;;;4757579;29;20464;-80
2021/03/08 20:33:22;;;;;;;5.68;4.07;;;-1.50;99.90;;;;;;4765580;29;21180;-80
2021/03/08 20:35:48;;;;;;;7.95;4.82;;;-1.60;99.90;;;;;;4770803;29;20452;-79
2021/03/08 20:38:15;;;;;;;5.68;4.10;;;-1.60;99.90;;;;;;4772463;29;20467;-79
2021/03/08 20:40:41;;;;;;;4.20;3.80;;;-1.70;99.90;;;;;;4774821;29;20854;-79
2021/03/08 20:43:08;;;;;;;4.70;3.75;;;-1.60;99.90;;;;;;4773452;29;20919;-82
2021/03/08 20:45:34;;;;;;;8.10;6.57;;;-1.70;99.90;;;;;;4789690;29;20422;-80
2021/03/08 20:48:01;;;;;;;6.15;4.70;;;-1.80;99.90;;;;;;4772895;29;20431;-80
2021/03/08 20:50:27;;;;;;;4.53;4.13;;;-1.80;99.90;;;;;;4773150;29;21012;-79
2021/03/08 20:52:55;;;;;;;4.90;3.90;;;-1.90;99.90;;;;;;4772663;29;20795;-81
2021/03/08 20:55:22;;;;;;;5.60;4.32;;;-1.90;99.90;;;;;;4764976;29;20423;-78
2021/03/08 20:57:48;;;;;;;5.70;3.83;;;-1.90;99.90;;;;;;4787739;29;20422;-78